CheckWX is a tool to help pilots better visualize weather data.  It is not intended as a substitute for an official pre-flight weather briefing.

22:55:11 UTC

VGHS METAR
Dhaka
Dhaka, Bangladesh
Current

25 mins ago

VGHS 112230Z 15006KT 3500 HZ SCT012 FEW025CB BKN100 28/25 Q1001 TEMPO TSRA
Observed
Jul-11 @ 22:30 UTC
Wind
  • 150° at 6 KTS
Visibility
3492 meters
Flight Rules
IFR
Conditions
Haze
Cloud Levels
  • Scattered at 1,200' AGL
  • Few at 2,500' AGL
  • Broken at 10,000' AGL
Temperature
28°C / 82°F
Dewpoint
25°C / 77°F
Humidity
84%
Altimeter
29.56" Hg
Pressure
1000.92 hPa
Previous

55 mins ago

VGHS 112200Z 17006KT 3500 HZ SCT012 BKN100 28/25 Q1001 NOSIG
Observed
Jul-11 @ 22:00 UTC
Wind
  • 170° at 6 KTS
Visibility
3492 meters
Flight Rules
IFR
Conditions
Haze
Cloud Levels
  • Scattered at 1,200' AGL
  • Broken at 10,000' AGL
Temperature
28°C / 82°F
Dewpoint
25°C / 77°F
Humidity
84%
Altimeter
29.56" Hg
Pressure
1000.92 hPa
Previous

1 hour ago

VGHS 112130Z 18006KT 3500 HZ SCT012 BKN100 28/25 Q1001 NOSIG
Observed
Jul-11 @ 21:30 UTC
Wind
  • 180° at 6 KTS
Visibility
3492 meters
Flight Rules
IFR
Conditions
Haze
Cloud Levels
  • Scattered at 1,200' AGL
  • Broken at 10,000' AGL
Temperature
28°C / 82°F
Dewpoint
25°C / 77°F
Humidity
84%
Altimeter
29.56" Hg
Pressure
1000.92 hPa